This is the latest recevied weather packets stored in our database for station/object N0AOL-13. If no packets are shown the sender has not sent any weather packets the latest 10 day(s).
| Time | Temp. | Humidity | Pressure | Rain* | Wind** | Luminosity | Snow |
|---|---|---|---|---|---|---|---|
| 1777955426 | 6.67° C | 64% | 1012.4 hPa | 0 mm | - | 0 W/m² | - |
| 1777950026 | 7.78° C | 57% | 1012.3 hPa | 0 mm | - | 0 W/m² | - |
| 1777946419 | 8.89° C | 53% | 1012 hPa | 0 mm | - | 0 W/m² | - |
| 1777944620 | 9.44° C | 50% | 1011.4 hPa | 0 mm | - | 12 W/m² | - |
| 1777940121 | 10° C | 48% | 1010.6 hPa | 0 mm | - | 60 W/m² | - |
| 1777929319 | 13.33° C | 40% | 1009.9 hPa | 0 mm | - | 278 W/m² | - |
| 1777927550 | 13.33° C | 41% | 1010 hPa | 0 mm | - | 417 W/m² | - |
| 1777923023 | 13.33° C | 45% | 1010.3 hPa | 0 mm | - | 360 W/m² | - |
| 1777921224 | 14.44° C | 44% | 1010.2 hPa | 0 mm | - | 348 W/m² | - |
| 1777919427 | 13.89° C | 47% | 1010.3 hPa | 0 mm | - | 482 W/m² | - |
| 1777915825 | 15° C | 44% | 1010.7 hPa | 0 mm | - | 336 W/m² | - |
| 1777905023 | 11.67° C | 54% | 1009.8 hPa | 0 mm | - | 232 W/m² | - |
| 1777902335 | 11.11° C | 55% | 1009.6 hPa | 0 mm | - | 236 W/m² | - |
| 1777901423 | 10° C | 57% | 1009.4 hPa | 0 mm | - | 220 W/m² | - |
| 1777899634 | 8.89° C | 64% | 1009.3 hPa | 0 mm | - | 60 W/m² | - |
| 1777896925 | 7.78° C | 65% | 1008.5 hPa | 0 mm | - | 16 W/m² | - |
| 1777893329 | 8.33° C | 60% | 1006 hPa | 0 mm | - | 0 W/m² | - |
| 1777887928 | 7.22° C | 67% | 1005.4 hPa | 0 mm | - | 0 W/m² | - |
| 1777886137 | 7.78° C | 67% | 1005.6 hPa | 0 mm | - | 0 W/m² | - |
| 1777884332 | 8.33° C | 67% | 1005.8 hPa | 0 mm | - | 0 W/m² | - |
| 1777875326 | 8.33° C | 72% | 1006.9 hPa | 0 mm | - | 0 W/m² | - |
| 1777874433 | 8.33° C | 74% | 1007 hPa | 0 mm | - | 0 W/m² | - |
| 1777865427 | 8.89° C | 83% | 1007.7 hPa | 0 mm | - | 0 W/m² | - |
| 1777862728 | 9.44° C | 79% | 1007.8 hPa | 0 mm | - | 0 W/m² | - |
| 1777856426 | 12.78° C | 69% | 1008.8 hPa | 0 mm | - | 25 W/m² | - |
* Rain latest hour (hover to see other rain measurements)
** Current wind speed in m/s (hover to see current wind gust speed)